Time;durP1;ratioP1;P1;durP2;ratioP2;P2;SDS_P1;SDS_P2;PMS_P1;PMS_P2;Temp;Humidity;BMP_temperature;BMP_pressure;BME280_temperature;BME280_humidity;BME280_pressure;Samples;Min_cycle;Max_cycle;Signal;HPM_P1;HPM_P2
2022/05/07 00:00:44;;;;;;;5.54;2.15;;;;;;;;;;363308;147;864808;-54
2022/05/07 00:01:45;;;;;;;7.09;2.77;;;;;;;;;;364008;146;858556;-54
2022/05/07 00:02:47;;;;;;;5.41;2.48;;;;;;;;;;369139;146;858090;-53
2022/05/07 00:03:49;;;;;;;3.57;2.43;;;;;;;;;;365208;146;858789;-55
2022/05/07 00:04:50;;;;;;;6.32;2.79;;;;;;;;;;362342;148;864819;-54
2022/05/07 00:05:52;;;;;;;4.29;2.61;;;;;;;;;;362390;146;857342;-54
2022/05/07 00:06:54;;;;;;;7.63;2.45;;;;;;;;;;362292;148;857269;-54
2022/05/07 00:07:55;;;;;;;5.11;2.23;;;;;;;;;;362384;148;857314;-54
2022/05/07 00:08:57;;;;;;;7.19;3.14;;;;;;;;;;362397;148;857767;-55
2022/05/07 00:09:58;;;;;;;3.39;2.19;;;;;;;;;;364582;146;857292;-54
2022/05/07 00:11:00;;;;;;;3.81;1.61;;;;;;;;;;369234;146;857245;-54
2022/05/07 00:12:01;;;;;;;3.66;1.91;;;;;;;;;;367604;146;857679;-54
2022/05/07 00:13:04;;;;;;;7.10;1.68;;;;;;;;;;363370;146;856353;-56
2022/05/07 00:14:06;;;;;;;4.46;1.75;;;;;;;;;;363154;147;866961;-56
2022/05/07 00:15:08;;;;;;;3.56;1.95;;;;;;;;;;363323;146;857244;-54
2022/05/07 00:18:51;;;;;;;4.11;2.21;;;;;;;;;;361833;148;860630;-54
2022/05/07 00:19:52;;;;;;;8.24;2.54;;;;;;;;;;362572;148;859438;-54
2022/05/07 00:20:54;;;;;;;6.98;2.75;;;;;;;;;;362534;148;857376;-54
2022/05/07 00:21:56;;;;;;;7.94;2.54;;;;;;;;;;362415;148;865024;-54
2022/05/07 00:22:57;;;;;;;6.56;2.79;;;;;;;;;;362920;146;857747;-54
2022/05/07 00:23:59;;;;;;;7.07;2.64;;;;;;;;;;362314;148;857212;-54
2022/05/07 00:25:01;;;;;;;5.55;2.60;;;;;;;;;;362281;148;859642;-54
2022/05/07 00:26:02;;;;;;;6.31;2.53;;;;;;;;;;363165;148;856936;-54
2022/05/07 00:27:04;;;;;;;4.69;2.64;;;;;;;;;;363231;147;859861;-54
2022/05/07 00:28:06;;;;;;;5.94;2.56;;;;;;;;;;363214;147;858334;-54
2022/05/07 00:29:07;;;;;;;5.78;2.69;;;;;;;;;;363181;147;864302;-54
2022/05/07 00:30:09;;;;;;;4.39;2.23;;;;;;;;;;363185;147;864819;-54
2022/05/07 00:31:11;;;;;;;8.57;2.88;;;;;;;;;;363319;146;857139;-54
2022/05/07 00:32:12;;;;;;;4.97;2.46;;;;;;;;;;363190;148;857249;-54
2022/05/07 00:33:14;;;;;;;10.08;2.59;;;;;;;;;;363177;148;858985;-54
2022/05/07 00:34:15;;;;;;;7.01;2.30;;;;;;;;;;363352;148;857534;-54
2022/05/07 00:35:17;;;;;;;8.56;2.48;;;;;;;;;;363174;148;860182;-54
2022/05/07 00:36:18;;;;;;;6.87;2.57;;;;;;;;;;363210;147;859878;-53
2022/05/07 00:37:20;;;;;;;6.24;2.44;;;;;;;;;;362774;146;865736;-54
2022/05/07 00:38:21;;;;;;;5.08;2.72;;;;;;;;;;363237;147;859132;-54
2022/05/07 00:39:24;;;;;;;6.70;2.57;;;;;;;;;;363267;148;860686;-54
2022/05/07 00:40:26;;;;;;;4.47;2.04;;;;;;;;;;359940;141;856677;-55
2022/05/07 00:41:27;;;;;;;4.96;1.82;;;;;;;;;;352743;149;858629;-54
2022/05/07 00:42:29;;;;;;;4.68;1.90;;;;;;;;;;356658;151;864376;-55
2022/05/07 00:43:37;;;;;;;4.61;2.15;;;;;;;;;;357135;151;856445;-54
2022/05/07 00:44:39;;;;;;;5.26;1.96;;;;;;;;;;351830;151;859182;-55
2022/05/07 00:45:41;;;;;;;7.69;1.93;;;;;;;;;;350855;153;859274;-55
2022/05/07 00:58:36;;;;;;;3.75;2.27;;;;;;;10.32;42.01;100646.69;374735;142;879570;-54
2022/05/07 00:59:38;;;;;;;4.67;2.45;;;;;;;10.25;42.12;100649.26;366017;146;857181;-55
2022/05/07 01:00:40;;;;;;;4.28;2.67;;;;;;;10.25;42.34;100657.02;366101;147;857201;-54
2022/05/07 01:01:42;;;;;;;5.27;2.81;;;;;;;10.25;41.86;100650.11;365272;146;858669;-54
2022/05/07 01:02:43;;;;;;;5.10;2.51;;;;;;;10.27;41.61;100650.13;358155;146;857667;-54
2022/05/07 01:03:46;;;;;;;5.48;2.61;;;;;;;10.29;41.52;100649.27;365094;146;864746;-54
2022/05/07 01:04:48;;;;;;;5.93;2.89;;;;;;;10.28;41.81;100646.69;366573;146;864587;-55
2022/05/07 01:05:50;;;;;;;5.07;2.54;;;;;;;10.26;41.65;100645.81;361545;148;866579;-55
2022/05/07 01:06:52;;;;;;;4.40;2.67;;;;;;;10.23;42.10;100647.53;356692;150;866558;-54
2022/05/07 01:07:54;;;;;;;6.29;2.58;;;;;;;10.24;42.01;100645.79;356575;150;858365;-54
2022/05/07 01:08:56;;;;;;;4.83;2.64;;;;;;;10.26;42.09;100649.25;356821;150;857294;-55
2022/05/07 01:09:58;;;;;;;6.11;1.72;;;;;;;10.29;41.86;100648.41;356683;150;858245;-54
2022/05/07 01:11:00;;;;;;;3.55;1.89;;;;;;;10.33;41.66;100643.23;356787;150;865718;-54
2022/05/07 01:12:02;;;;;;;6.32;2.36;;;;;;;10.35;40.63;100644.11;356654;151;866496;-56
2022/05/07 01:13:04;;;;;;;7.13;2.30;;;;;;;10.33;40.45;100648.42;356782;146;865876;-55
2022/05/07 01:14:06;;;;;;;3.59;2.19;;;;;;;10.28;40.53;100638.92;356825;150;859280;-54
2022/05/07 01:15:08;;;;;;;6.26;2.56;;;;;;;10.20;40.65;100642.34;356635;150;857323;-54
2022/05/07 01:24:30;;;;;;;6.73;3.51;;;;;;;10.06;40.65;100636.20;364336;142;965764;-54
2022/05/07 01:25:32;;;;;;;7.19;3.54;;;;;;;10.01;40.93;100649.12;365182;147;863851;-54
2022/05/07 01:26:34;;;;;;;8.37;3.22;;;;;;;10.06;40.22;100644.84;361659;146;859441;-54
2022/05/07 01:27:36;;;;;;;5.99;3.45;;;;;;;10.12;40.98;100635.38;359403;150;857330;-54
2022/05/07 01:28:38;;;;;;;7.34;3.51;;;;;;;;;;359482;149;855996;-53
2022/05/07 01:29:39;;;;;;;5.55;3.06;;;;;;;;;;359259;149;864735;-54
2022/05/07 01:30:41;;;;;;;6.92;3.04;;;;;;;;;;359283;149;857103;-53
2022/05/07 01:31:43;;;;;;;8.49;3.26;;;;;;;;;;359173;149;864805;-54
2022/05/07 01:32:44;;;;;;;6.28;3.09;;;;;;;;;;359268;150;866470;-54
2022/05/07 01:33:46;;;;;;;5.49;3.21;;;;;;;;;;359260;149;857258;-54
2022/05/07 01:34:47;;;;;;;7.87;3.16;;;;;;;;;;359466;150;857250;-54
2022/05/07 01:35:49;;;;;;;4.77;2.84;;;;;;;;;;359403;149;857847;-53
2022/05/07 01:36:51;;;;;;;5.84;3.49;;;;;;;;;;359099;147;857321;-55
2022/05/07 01:37:52;;;;;;;7.62;3.65;;;;;;;;;;359091;150;865827;-54
2022/05/07 01:38:54;;;;;;;7.66;3.69;;;;;;;;;;359372;149;857306;-54
2022/05/07 01:39:56;;;;;;;4.51;1.96;;;;;;;;;;363129;147;857185;-54
2022/05/07 01:40:59;;;;;;;5.34;2.69;;;;;;;;;;362335;146;865154;-56
2022/05/07 01:42:00;;;;;;;7.60;2.53;;;;;;;;;;359749;149;857210;-55
2022/05/07 01:43:02;;;;;;;5.35;2.25;;;;;;;;;;360802;149;857714;-54
2022/05/07 01:44:04;;;;;;;6.79;2.53;;;;;;;;;;361209;148;857357;-54
2022/05/07 01:45:06;;;;;;;5.89;2.61;;;;;;;;;;362467;148;858194;-54
2022/05/07 01:48:09;;;;;;;5.05;2.59;;;;;;;;;;363161;146;859814;-54
2022/05/07 01:48:31;;;;;;;4.86;2.26;;;;;;;;;;362664;148;859625;-55
2022/05/07 01:49:33;;;;;;;5.23;2.99;;;;;;;;;;362436;146;865714;-55
2022/05/07 01:50:35;;;;;;;8.21;3.24;;;;;;;;;;362481;146;864768;-53
2022/05/07 01:51:36;;;;;;;6.47;3.24;;;;;;;;;;362395;146;864757;-54
2022/05/07 01:52:38;;;;;;;5.47;3.45;;;;;;;;;;362287;148;864765;-54
2022/05/07 01:53:39;;;;;;;6.20;3.21;;;;;;;;;;363375;146;857203;-54
2022/05/07 01:54:41;;;;;;;6.58;3.09;;;;;;;;;;362472;148;857149;-54
2022/05/07 01:55:43;;;;;;;10.94;3.41;;;;;;;;;;353595;149;857237;-54
2022/05/07 01:56:45;;;;;;;7.45;3.56;;;;;;;;;;359815;146;860769;-54
2022/05/07 01:57:47;;;;;;;8.31;3.69;;;;;;;;;;368197;145;858966;-54
2022/05/07 01:58:49;;;;;;;14.15;3.78;;;;;;;;;;363277;148;865709;-54
2022/05/07 01:59:50;;;;;;;9.71;3.52;;;;;;;;;;362715;147;859018;-54
2022/05/07 02:00:52;;;;;;;11.56;3.62;;;;;;;;;;362326;148;859673;-54
2022/05/07 02:01:53;;;;;;;11.08;3.44;;;;;;;;;;362660;148;864911;-54
2022/05/07 02:02:55;;;;;;;6.45;2.92;;;;;;;;;;363358;147;857231;-54
2022/05/07 02:03:58;;;;;;;9.63;3.08;;;;;;;;;;363088;146;859548;-54
2022/05/07 02:05:00;;;;;;;7.49;3.34;;;;;;;;;;362439;148;857245;-54
2022/05/07 02:06:01;;;;;;;6.01;3.28;;;;;;;;;;362395;148;857942;-54
2022/05/07 02:07:03;;;;;;;7.65;3.51;;;;;;;;;;362457;148;857745;-55
2022/05/07 02:08:05;;;;;;;5.72;3.18;;;;;;;;;;362437;146;864879;-54
2022/05/07 02:09:07;;;;;;;6.51;3.40;;;;;;;;;;362369;148;865837;-54
2022/05/07 02:10:09;;;;;;;3.04;1.66;;;;;;;;;;362524;148;857121;-54
2022/05/07 02:11:10;;;;;;;3.57;2.43;;;;;;;;;;362457;148;857696;-54
2022/05/07 02:12:12;;;;;;;4.21;2.34;;;;;;;;;;362428;146;857229;-54
2022/05/07 02:13:13;;;;;;;4.39;2.85;;;;;;;;;;364583;147;857367;-54
2022/05/07 02:14:15;;;;;;;5.94;2.65;;;;;;;;;;364374;147;857369;-54
2022/05/07 02:15:16;;;;;;;13.66;3.98;;;;;;;;;;364414;147;857778;-54
2022/05/07 02:16:18;;;;;;;4.89;2.26;;;;;;;;;;363166;146;857469;-54
2022/05/07 02:17:19;;;;;;;3.66;1.99;;;;;;;;;;362526;148;864925;-54
2022/05/07 02:18:21;;;;;;;7.29;2.82;;;;;;;;;;362610;148;857708;-54
2022/05/07 02:19:22;;;;;;;6.86;3.07;;;;;;;;;;362611;148;857398;-54
2022/05/07 02:20:24;;;;;;;7.81;3.22;;;;;;;;;;362620;148;857524;-54
2022/05/07 02:21:26;;;;;;;6.62;3.21;;;;;;;;;;362569;148;865077;-54
2022/05/07 02:22:27;;;;;;;8.16;3.58;;;;;;;;;;362504;146;856417;-54
2022/05/07 02:23:29;;;;;;;6.69;3.46;;;;;;;;;;362434;148;863961;-55
2022/05/07 02:24:31;;;;;;;8.98;3.63;;;;;;;;;;362483;146;856533;-57
2022/05/07 02:25:32;;;;;;;9.33;3.52;;;;;;;;;;363093;148;856842;-54
2022/05/07 02:26:34;;;;;;;9.51;3.69;;;;;;;;;;362592;148;864682;-54
2022/05/07 02:27:35;;;;;;;11.11;3.55;;;;;;;;;;362604;148;856205;-54
2022/05/07 02:28:37;;;;;;;10.04;3.59;;;;;;;;;;362546;148;857214;-54
2022/05/07 02:29:39;;;;;;;8.50;3.41;;;;;;;;;;355159;151;857160;-56
2022/05/07 02:30:41;;;;;;;6.79;3.18;;;;;;;;;;369355;146;857067;-56
2022/05/07 02:32:03;;;;;;;11.13;3.43;;;;;;;;;;368687;145;864728;-56
2022/05/07 02:32:46;;;;;;;9.33;3.22;;;;;;;;;;360036;148;857187;-55
2022/05/07 02:33:48;;;;;;;7.88;3.06;;;;;;;;;;362503;148;859206;-57
2022/05/07 02:34:50;;;;;;;10.39;3.36;;;;;;;;;;362568;148;859603;-56
2022/05/07 02:35:51;;;;;;;8.06;3.29;;;;;;;;;;362519;146;864848;-56
2022/05/07 02:36:53;;;;;;;8.92;3.55;;;;;;;;;;362529;148;866638;-56
2022/05/07 02:37:54;;;;;;;10.67;3.76;;;;;;;;;;362940;148;866538;-56
2022/05/07 02:38:56;;;;;;;10.81;3.66;;;;;;;;;;362530;148;857241;-56
2022/05/07 02:39:58;;;;;;;6.83;3.27;;;;;;;;;;362752;148;858846;-56
2022/05/07 02:42:39;;;;;;;5.09;2.82;;;;;;;;;;362212;146;857280;-53
2022/05/07 02:43:41;;;;;;;5.03;2.51;;;;;;;;;;362256;146;857085;-54
2022/05/07 02:44:42;;;;;;;4.42;2.34;;;;;;;;;;362493;148;857251;-54
2022/05/07 02:45:44;;;;;;;3.79;2.39;;;;;;;;;;362689;146;857359;-53
2022/05/07 02:46:45;;;;;;;10.11;2.54;;;;;;;;;;363267;148;860970;-53
2022/05/07 02:47:47;;;;;;;6.89;2.71;;;;;;;;;;363165;148;867111;-53
2022/05/07 02:48:48;;;;;;;18.23;3.19;;;;;;;;;;363007;147;859174;-54
2022/05/07 02:49:51;;;;;;;7.93;2.62;;;;;;;;;;362404;148;861329;-53
2022/05/07 02:50:53;;;;;;;5.75;2.95;;;;;;;;;;362302;148;857842;-53
2022/05/07 02:51:54;;;;;;;18.39;3.81;;;;;;;;;;362273;148;865625;-54
2022/05/07 02:52:56;;;;;;;7.08;3.83;;;;;;;;;;365824;146;865005;-53
2022/05/07 02:53:57;;;;;;;8.39;3.71;;;;;;;;;;368405;145;857330;-53
2022/05/07 02:55:00;;;;;;;6.16;3.48;;;;;;;;;;365038;145;857279;-54
2022/05/07 02:56:02;;;;;;;6.37;3.81;;;;;;;;;;362354;146;858639;-55
2022/05/07 02:57:03;;;;;;;10.19;3.81;;;;;;;;;;355072;149;864281;-54
2022/05/07 02:58:06;;;;;;;6.11;3.51;;;;;;;;;;362424;146;865975;-55
2022/05/07 02:59:08;;;;;;;12.06;4.19;;;;;;;;;;355285;149;864778;-54
2022/05/07 03:00:10;;;;;;;7.63;4.00;;;;;;;;;;363656;147;857250;-54
2022/05/07 03:01:12;;;;;;;11.98;4.23;;;;;;;;;;362310;148;864847;-54
2022/05/07 03:02:13;;;;;;;9.57;4.15;;;;;;;;;;366411;146;859039;-54
2022/05/07 03:03:15;;;;;;;9.88;4.32;;;;;;;;;;364874;145;864715;-54
2022/05/07 03:04:17;;;;;;;12.68;4.66;;;;;;;;;;362346;146;857272;-54
2022/05/07 03:05:18;;;;;;;7.77;3.89;;;;;;;;;;368669;146;864931;-53
2022/05/07 03:06:20;;;;;;;7.97;3.81;;;;;;;;;;368908;146;857293;-54
2022/05/07 03:07:21;;;;;;;10.21;4.01;;;;;;;;;;369046;146;864818;-54
2022/05/07 03:08:23;;;;;;;10.39;4.19;;;;;;;;;;364046;145;857510;-54
2022/05/07 03:09:25;;;;;;;12.43;4.35;;;;;;;;;;355091;151;857790;-54
2022/05/07 03:10:27;;;;;;;11.24;4.14;;;;;;;;;;355711;148;857921;-53
2022/05/07 03:11:28;;;;;;;11.76;4.41;;;;;;;;;;362846;148;865143;-54
2022/05/07 03:12:30;;;;;;;8.73;4.24;;;;;;;;;;362435;146;864133;-54
2022/05/07 03:13:31;;;;;;;8.48;2.86;;;;;;;;;;362385;148;856703;-54
2022/05/07 03:14:33;;;;;;;6.69;2.79;;;;;;;;;;362572;146;860086;-54
2022/05/07 03:15:35;;;;;;;7.60;2.88;;;;;;;;;;363304;147;858071;-54
2022/05/07 03:16:38;;;;;;;6.53;2.96;;;;;;;;;;368877;146;857221;-54
2022/05/07 03:17:40;;;;;;;5.55;2.86;;;;;;;;;;368622;146;857125;-55
2022/05/07 03:18:41;;;;;;;9.70;3.42;;;;;;;;;;362947;147;858996;-54
2022/05/07 03:19:43;;;;;;;4.27;2.62;;;;;;;;;;362479;148;857881;-54
2022/05/07 03:20:44;;;;;;;7.81;3.25;;;;;;;;;;363240;147;857206;-54
2022/05/07 03:21:47;;;;;;;7.85;3.12;;;;;;;;;;363972;146;866607;-55
2022/05/07 03:22:48;;;;;;;7.44;2.52;;;;;;;;;;366355;145;858599;-55
2022/05/07 03:23:50;;;;;;;15.22;4.29;;;;;;;;;;362395;146;865742;-54
2022/05/07 03:24:51;;;;;;;9.89;4.27;;;;;;;;;;365405;146;858650;-53
2022/05/07 03:25:53;;;;;;;9.27;4.10;;;;;;;;;;364487;145;858987;-54
2022/05/07 03:26:54;;;;;;;11.29;4.08;;;;;;;;;;362527;146;864869;-54
2022/05/07 03:27:56;;;;;;;10.51;4.19;;;;;;;;;;362489;146;865021;-54
2022/05/07 03:28:58;;;;;;;13.09;4.29;;;;;;;;;;362951;148;857150;-54
2022/05/07 03:29:59;;;;;;;13.24;4.51;;;;;;;;;;364813;146;864974;-54
2022/05/07 03:31:01;;;;;;;8.25;4.23;;;;;;;;;;359554;149;857203;-54
2022/05/07 03:32:03;;;;;;;10.74;3.91;;;;;;;;;;357131;148;858774;-54
2022/05/07 03:33:05;;;;;;;7.91;4.33;;;;;;;;;;368629;145;862838;-54
2022/05/07 03:34:06;;;;;;;10.89;4.21;;;;;;;;;;367509;145;865937;-54
2022/05/07 03:35:08;;;;;;;7.57;3.54;;;;;;;;;;362670;146;859385;-54
2022/05/07 03:36:11;;;;;;;11.33;4.12;;;;;;;;;;362448;146;858273;-53
2022/05/07 03:37:12;;;;;;;8.49;3.79;;;;;;;;;;362745;146;865433;-54
2022/05/07 03:38:14;;;;;;;10.20;4.21;;;;;;;;;;363168;146;864868;-53
2022/05/07 03:39:15;;;;;;;10.25;4.00;;;;;;;;;;362513;148;857230;-53
2022/05/07 03:40:17;;;;;;;8.83;4.00;;;;;;;;;;363127;146;857216;-54
2022/05/07 03:41:19;;;;;;;9.83;4.57;;;;;;;;;;369065;146;860614;-54
2022/05/07 03:42:21;;;;;;;10.15;4.06;;;;;;;;;;364866;145;858575;-54
2022/05/07 03:43:22;;;;;;;6.38;3.76;;;;;;;;;;362365;148;858850;-54
2022/05/07 03:44:24;;;;;;;10.40;4.13;;;;;;;;;;360572;144;856544;-55
2022/05/07 03:45:27;;;;;;;6.81;3.01;;;;;;;;;;349441;151;860287;-56
2022/05/07 03:46:29;;;;;;;5.83;2.71;;;;;;;;;;350132;151;860182;-56
2022/05/07 03:47:31;;;;;;;10.59;2.96;;;;;;;;;;355838;151;857054;-55
2022/05/07 03:48:32;;;;;;;7.96;2.52;;;;;;;;;;353222;151;859443;-55
2022/05/07 03:49:34;;;;;;;4.96;2.21;;;;;;;;;;349628;151;858701;-55
2022/05/07 03:50:36;;;;;;;7.40;2.69;;;;;;;;;;349689;151;857612;-55
2022/05/07 03:54:17;;;;;;;5.01;2.07;;;;;;;;;;349785;151;857114;-55
2022/05/07 03:55:19;;;;;;;5.94;2.59;;;;;;;;;;349563;151;858382;-54
2022/05/07 03:56:21;;;;;;;7.43;4.46;;;;;;;;;;349637;151;857354;-55
2022/05/07 03:57:22;;;;;;;7.33;4.04;;;;;;;;;;349484;154;857482;-55
2022/05/07 03:58:25;;;;;;;11.57;3.96;;;;;;;;;;349698;151;860759;-55
2022/05/07 03:59:27;;;;;;;11.58;4.19;;;;;;;;;;354320;143;864351;-55
2022/05/07 04:00:29;;;;;;;12.39;4.43;;;;;;;;;;358787;148;856953;-56
2022/05/07 04:01:30;;;;;;;9.09;4.07;;;;;;;;;;363872;148;857199;-55
2022/05/07 04:02:35;;;;;;;10.92;4.75;;;;;;;;;;359154;145;859869;-54
2022/05/07 04:03:36;;;;;;;9.94;4.22;;;;;;;;;;358822;150;857322;-56
2022/05/07 04:04:37;;;;;;;13.22;4.34;;;;;;;;;;356126;150;858586;-55
2022/05/07 04:05:39;;;;;;;8.53;4.59;;;;;;;;;;359159;150;857116;-55
2022/05/07 04:06:41;;;;;;;12.14;4.24;;;;;;;;;;359121;149;858156;-55
2022/05/07 04:07:42;;;;;;;8.94;3.74;;;;;;;;;;357556;150;857217;-55
2022/05/07 04:08:45;;;;;;;8.46;4.06;;;;;;;;;;357058;150;865190;-55
2022/05/07 04:09:47;;;;;;;10.88;4.19;;;;;;;;;;357073;150;860258;-55
2022/05/07 04:10:48;;;;;;;8.69;3.96;;;;;;;;;;357074;151;866471;-56
2022/05/07 04:11:50;;;;;;;7.38;3.84;;;;;;;;;;357085;150;864949;-55
2022/05/07 04:12:51;;;;;;;9.61;3.72;;;;;;;;;;357264;151;857321;-55
2022/05/07 04:13:53;;;;;;;8.19;3.94;;;;;;;;;;357213;150;861824;-55
2022/05/07 04:14:56;;;;;;;8.21;3.68;;;;;;;;;;357288;150;860290;-54
2022/05/07 04:15:59;;;;;;;9.94;3.89;;;;;;;;;;357089;150;859213;-55
2022/05/07 04:17:00;;;;;;;11.12;4.06;;;;;;;;;;357181;151;857302;-55
2022/05/07 04:18:02;;;;;;;7.99;3.75;;;;;;;;;;357297;150;857167;-55
2022/05/07 04:19:04;;;;;;;5.57;3.29;;;;;;;;;;357204;150;864719;-55
2022/05/07 04:20:09;;;;;;;12.51;3.92;;;;;;;;;;357193;150;857114;-55
2022/05/07 04:21:10;;;;;;;7.69;3.77;;;;;;;;;;357155;151;857167;-54
2022/05/07 04:22:12;;;;;;;7.76;4.09;;;;;;;;;;357168;151;859056;-54
2022/05/07 04:23:13;;;;;;;5.04;3.00;;;;;;;;;;357160;151;857477;-55
2022/05/07 04:24:15;;;;;;;9.66;3.79;;;;;;;;;;357185;151;857339;-54
2022/05/07 04:25:17;;;;;;;7.99;2.80;;;;;;;;;;356720;151;857382;-54
2022/05/07 04:26:18;;;;;;;8.18;3.29;;;;;;;;;;349926;151;859992;-55
2022/05/07 04:27:20;;;;;;;8.19;3.65;;;;;;;;;;349702;154;857311;-54
2022/05/07 04:28:21;;;;;;;11.64;3.60;;;;;;;;;;349709;154;857698;-54
2022/05/07 04:29:23;;;;;;;10.76;3.67;;;;;;;;;;349687;154;858884;-55
2022/05/07 04:30:24;;;;;;;11.86;3.94;;;;;;;;;;349638;154;859103;-55
2022/05/07 04:31:26;;;;;;;7.67;3.81;;;;;;;;;;349594;154;866660;-55
2022/05/07 04:32:28;;;;;;;10.43;3.85;;;;;;;;;;349687;154;857886;-54
2022/05/07 04:33:29;;;;;;;8.35;3.98;;;;;;;;;;349629;154;864233;-55
2022/05/07 04:34:31;;;;;;;10.96;3.91;;;;;;;;;;354653;150;856261;-55
2022/05/07 04:35:32;;;;;;;7.37;3.92;;;;;;;;;;357811;150;856233;-54
2022/05/07 04:36:34;;;;;;;11.01;4.05;;;;;;;;;;359217;149;857212;-54
2022/05/07 04:37:35;;;;;;;9.52;4.03;;;;;;;;;;357213;150;866671;-54
2022/05/07 04:38:37;;;;;;;10.36;3.86;;;;;;;;;;355388;151;858036;-54
2022/05/07 04:39:38;;;;;;;8.31;3.89;;;;;;;;;;353759;151;857458;-54
2022/05/07 04:40:40;;;;;;;8.47;3.90;;;;;;;;;;349602;154;857225;-54
2022/05/07 04:41:41;;;;;;;10.44;3.65;;;;;;;;;;349561;154;864709;-54
2022/05/07 04:42:43;;;;;;;12.49;3.98;;;;;;;;;;349486;154;864979;-54
2022/05/07 04:43:45;;;;;;;8.64;4.21;;;;;;;;;;344410;154;857223;-55
2022/05/07 04:44:47;;;;;;;12.25;3.83;;;;;;;;;;355272;151;864739;-55
2022/05/07 04:45:48;;;;;;;9.83;4.16;;;;;;;;;;350887;153;857389;-56
2022/05/07 04:46:50;;;;;;;13.86;3.18;;;;;;;;;;350880;153;857234;-55
2022/05/07 04:47:52;;;;;;;11.46;4.22;;;;;;;;;;350862;153;865134;-55
2022/05/07 04:48:53;;;;;;;11.11;4.59;;;;;;;;;;353175;150;857189;-55
2022/05/07 04:49:55;;;;;;;8.43;3.49;;;;;;;;;;357893;150;857144;-55
2022/05/07 04:50:56;;;;;;;9.39;4.47;;;;;;;;;;357353;150;857241;-55
2022/05/07 04:51:58;;;;;;;6.46;2.92;;;;;;;;;;359233;150;857285;-55
2022/05/07 04:52:59;;;;;;;8.08;3.43;;;;;;;;;;359216;150;857199;-55
2022/05/07 04:54:01;;;;;;;5.92;3.34;;;;;;;;;;357351;150;857261;-55
2022/05/07 04:55:03;;;;;;;8.23;4.09;;;;;;;;;;355398;151;856176;-54
2022/05/07 04:56:05;;;;;;;5.69;2.75;;;;;;;;;;348013;154;857104;-55
2022/05/07 04:57:06;;;;;;;9.76;3.53;;;;;;;;;;355359;151;858534;-54
2022/05/07 04:58:07;;;;;;;9.80;3.71;;;;;;;;;;348016;154;857347;-54
2022/05/07 04:59:09;;;;;;;9.98;3.39;;;;;;;;;;355795;151;857346;-54
2022/05/07 05:00:12;;;;;;;8.74;3.38;;;;;;;;;;355613;151;857292;-54
2022/05/07 05:01:13;;;;;;;9.61;3.92;;;;;;;;;;353302;152;857672;-54
2022/05/07 05:02:15;;;;;;;10.09;4.19;;;;;;;;;;353379;152;858646;-54
2022/05/07 05:03:16;;;;;;;13.91;4.11;;;;;;;;;;353313;152;857228;-54
2022/05/07 05:04:18;;;;;;;11.25;4.36;;;;;;;;;;347178;152;857779;-54
2022/05/07 05:05:19;;;;;;;8.51;3.39;;;;;;;;;;347116;155;857862;-54
2022/05/07 05:06:21;;;;;;;10.57;4.34;;;;;;;;;;347099;155;859303;-54
2022/05/07 05:07:22;;;;;;;10.19;3.59;;;;;;;;;;349766;152;865467;-54
2022/05/07 05:08:27;;;;;;;10.31;4.40;;;;;;;;;;353238;152;858951;-54
2022/05/07 05:09:29;;;;;;;10.47;4.21;;;;;;;;;;353047;152;860203;-54
2022/05/07 05:10:31;;;;;;;6.68;3.55;;;;;;;;;;353348;152;858919;-55
2022/05/07 05:11:33;;;;;;;11.11;4.55;;;;;;;;;;353306;152;857386;-53
2022/05/07 05:12:34;;;;;;;9.89;4.21;;;;;;;;;;353291;152;861771;-54
2022/05/07 05:13:36;;;;;;;9.61;4.13;;;;;;;;;;353240;152;857116;-54
2022/05/07 05:15:59;;;;;;;9.96;4.02;;;;;;;;;;351054;152;857735;-55
2022/05/07 05:17:00;;;;;;;14.09;4.36;;;;;;;;;;353181;152;864910;-55
2022/05/07 05:18:02;;;;;;;11.16;3.78;;;;;;;;;;353228;152;857181;-55
2022/05/07 05:19:03;;;;;;;10.63;4.11;;;;;;;;;;353342;152;857822;-55
2022/05/07 05:20:06;;;;;;;8.44;4.07;;;;;;;;;;353291;152;858087;-55
2022/05/07 05:21:07;;;;;;;10.53;4.08;;;;;;;;;;353227;152;864612;-54
2022/05/07 05:22:09;;;;;;;11.54;3.91;;;;;;;;;;353212;152;857166;-54
2022/05/07 05:23:10;;;;;;;13.64;4.68;;;;;;;;;;353223;152;865989;-53
2022/05/07 05:24:12;;;;;;;14.14;4.48;;;;;;;;;;353277;152;859445;-54
2022/05/07 05:25:16;;;;;;;13.89;4.52;;;;;;;;;;353145;152;857183;-54
2022/05/07 05:26:18;;;;;;;9.89;4.04;;;;;;;;;;347583;154;857257;-55
2022/05/07 05:27:19;;;;;;;9.35;3.89;;;;;;;;;;352249;153;864826;-54
2022/05/07 05:28:21;;;;;;;11.10;4.32;;;;;;;;;;352570;152;857321;-53
2022/05/07 05:29:23;;;;;;;11.03;4.41;;;;;;;;;;352527;152;866777;-54
2022/05/07 05:30:26;;;;;;;9.89;4.01;;;;;;;;;;352555;153;859117;-54
2022/05/07 05:31:28;;;;;;;12.20;4.21;;;;;;;;;;352508;153;859430;-54
2022/05/07 05:32:30;;;;;;;10.61;4.47;;;;;;;;;;352561;152;856992;-54
2022/05/07 05:33:31;;;;;;;12.47;4.28;;;;;;;;;;352546;152;859201;-53
2022/05/07 05:34:33;;;;;;;12.03;4.37;;;;;;;;;;352530;153;856442;-54
2022/05/07 05:35:34;;;;;;;9.04;4.16;;;;;;;;;;351793;153;864937;-54
2022/05/07 05:36:36;;;;;;;19.83;5.01;;;;;;;;;;350747;153;863593;-55
2022/05/07 05:37:37;;;;;;;8.54;3.99;;;;;;;;;;352534;153;864886;-55
2022/05/07 05:38:39;;;;;;;12.80;4.44;;;;;;;;;;352529;152;857345;-56
2022/05/07 05:39:41;;;;;;;10.77;4.35;;;;;;;;;;352448;152;860101;-53
2022/05/07 05:40:43;;;;;;;10.76;3.99;;;;;;;;;;352636;153;858025;-54
2022/05/07 05:41:44;;;;;;;14.30;3.90;;;;;;;;;;352468;152;864836;-53
2022/05/07 05:42:46;;;;;;;8.21;3.98;;;;;;;;;;352450;152;858133;-54
2022/05/07 05:43:48;;;;;;;11.91;4.49;;;;;;;;;;352437;153;858698;-53
2022/05/07 05:44:49;;;;;;;7.61;4.05;;;;;;;;;;352386;153;857877;-54
2022/05/07 05:45:51;;;;;;;9.62;4.23;;;;;;;;;;352380;153;864826;-54
2022/05/07 05:46:53;;;;;;;12.11;4.12;;;;;;;;;;352424;153;857221;-54
2022/05/07 05:47:54;;;;;;;11.47;4.42;;;;;;;;;;352371;153;866965;-54
2022/05/07 05:48:56;;;;;;;7.99;3.71;;;;;;;;;;352443;153;859123;-54
2022/05/07 05:49:58;;;;;;;12.51;4.16;;;;;;;;;;352446;152;857480;-54
2022/05/07 05:50:59;;;;;;;7.84;4.07;;;;;;;;;;352440;152;857608;-54
2022/05/07 05:52:02;;;;;;;7.91;3.81;;;;;;;;;;352371;153;857759;-54
2022/05/07 05:53:03;;;;;;;9.01;4.37;;;;;;;;;;352420;152;858463;-54
2022/05/07 05:54:05;;;;;;;7.75;4.16;;;;;;;;;;349131;153;859100;-54
2022/05/07 05:55:07;;;;;;;11.11;4.19;;;;;;;;;;346415;154;864712;-54
2022/05/07 05:56:09;;;;;;;9.81;4.18;;;;;;;;;;351915;153;865656;-54
2022/05/07 05:57:10;;;;;;;11.48;3.23;;;;;;;;;;352473;152;860379;-54
2022/05/07 05:58:12;;;;;;;9.11;5.21;;;;;;;;;;352391;153;857964;-54
2022/05/07 05:59:13;;;;;;;10.61;4.71;;;;;;;;;;352429;152;858904;-54
2022/05/07 06:00:16;;;;;;;10.15;4.09;;;;;;;;;;352428;152;857211;-54
2022/05/07 06:01:18;;;;;;;8.03;4.27;;;;;;;;;;357105;150;857188;-54
2022/05/07 06:02:20;;;;;;;8.52;4.52;;;;;;;;;;357184;149;857625;-55
2022/05/07 06:03:22;;;;;;;10.99;3.76;;;;;;;;;;357263;150;857238;-55
2022/05/07 06:04:23;;;;;;;11.24;5.04;;;;;;;;;;352111;150;857494;-55
2022/05/07 06:05:25;;;;;;;7.99;3.97;;;;;;;;;;348875;154;859543;-55
2022/05/07 06:06:27;;;;;;;11.05;3.97;;;;;;;;;;348836;154;858841;-55
2022/05/07 06:07:29;;;;;;;8.49;4.49;;;;;;;;;;348813;154;857117;-55
2022/05/07 06:08:30;;;;;;;10.31;4.39;;;;;;;;;;348787;154;856400;-55
2022/05/07 06:09:32;;;;;;;8.39;4.28;;;;;;;;;;348788;154;860523;-55
2022/05/07 06:10:34;;;;;;;7.80;4.24;;;;;;;;;;348819;154;857594;-55
2022/05/07 06:11:35;;;;;;;9.84;4.16;;;;;;;;;;348750;154;864739;-55
2022/05/07 06:12:37;;;;;;;11.01;4.94;;;;;;;;;;348865;154;857230;-54
2022/05/07 06:13:38;;;;;;;7.44;4.17;;;;;;;;;;348822;154;857834;-54
2022/05/07 06:14:40;;;;;;;10.69;4.25;;;;;;;;;;348798;154;858953;-54
2022/05/07 06:15:41;;;;;;;10.70;4.29;;;;;;;;;;348801;154;858047;-54
2022/05/07 06:16:43;;;;;;;10.39;4.84;;;;;;;;;;352265;150;859757;-55
2022/05/07 06:17:44;;;;;;;10.23;4.36;;;;;;;;;;355022;151;864918;-55
2022/05/07 06:18:46;;;;;;;8.02;3.79;;;;;;;;;;355054;151;857169;-54
2022/05/07 06:19:48;;;;;;;7.99;4.48;;;;;;;;;;356551;150;857234;-54
2022/05/07 06:20:51;;;;;;;10.09;4.63;;;;;;;;;;355046;151;857182;-55
2022/05/07 06:21:52;;;;;;;13.81;4.66;;;;;;;;;;355083;151;857367;-54
2022/05/07 06:22:55;;;;;;;9.67;3.58;;;;;;;;;;354944;151;857376;-54
2022/05/07 06:27:28;;;;;;;10.80;4.34;;;;;;;;;;354686;151;866118;-54
2022/05/07 06:27:42;;;;;;;10.69;5.40;;;;;;;;;;348556;154;864986;-54
2022/05/07 06:28:43;;;;;;;10.88;4.79;;;;;;;;;;348839;154;858702;-53
2022/05/07 06:29:45;;;;;;;8.36;3.96;;;;;;;;;;348857;154;857146;-54